Terminal Aerodrome Forecast
Issued by NWS Charleston, WV

Current Version | Previous Version | Graphics & Text | Print | Product List | Glossary On
Versions: 1 2 3 4 5 6 7 8 9 10 11 12 13 14 15 16 17 18 19 20 21 22 23
000
FTUS41 KRLX 240200 AAA
TAFEKN
TAF AMD
KEKN 240247Z 2403/2424 00000KT P6SM BKN060
     FM240500 00000KT 5SM SHRA BR OVC035
     FM240900 00000KT 2SM SHRA BR OVC015
     FM241600 18006KT 4SM SHRA BR BKN035
     FM241800 18009G15KT P6SM BKN035
     FM242200 19009G15KT P6SM SHRA OVC035=

USA.gov is the U.S. government's official web portal to all federal, state and local government web resources and services.